createdAt,value
2023-03-05T00:00:00.831Z,21.08
2023-03-05T00:05:00.614Z,21.04
2023-03-05T00:10:00.422Z,20.83
2023-03-05T00:15:00.200Z,20.58
2023-03-05T00:20:05.158Z,20.64
2023-03-05T00:24:59.804Z,20.48
2023-03-05T00:29:59.622Z,20.48
2023-03-05T00:34:59.441Z,20.39
2023-03-05T00:39:59.270Z,20.30
2023-03-05T00:44:59.073Z,20.25
2023-03-05T00:49:58.919Z,20.21
2023-03-05T00:54:58.751Z,20.30
2023-03-05T00:59:58.642Z,20.04
2023-03-05T01:04:58.471Z,19.96
2023-03-05T01:09:58.334Z,20.00
2023-03-05T01:14:58.219Z,19.96
2023-03-05T01:19:58.058Z,19.76
2023-03-05T01:24:57.913Z,19.76
2023-03-05T01:29:57.778Z,19.61
2023-03-05T01:34:57.638Z,19.69
2023-03-05T01:39:57.520Z,19.64
2023-03-05T01:44:57.384Z,19.55
2023-03-05T01:49:57.269Z,19.57
2023-03-05T01:54:57.164Z,19.50
2023-03-05T01:59:57.016Z,19.39
2023-03-05T02:04:56.899Z,19.45
2023-03-05T02:09:56.793Z,19.51
2023-03-05T02:14:56.689Z,19.42
2023-03-05T02:19:56.560Z,19.35
2023-03-05T02:24:56.390Z,19.34
2023-03-05T02:29:56.265Z,19.34
2023-03-05T02:34:56.111Z,19.37
2023-03-05T02:39:55.970Z,19.35
2023-03-05T02:44:55.815Z,19.26
2023-03-05T02:49:55.659Z,19.27
2023-03-05T02:54:55.523Z,19.24
2023-03-05T02:59:55.407Z,19.23
2023-03-05T03:04:55.207Z,19.18
2023-03-05T03:09:55.071Z,19.03
2023-03-05T03:14:54.923Z,19.00
2023-03-05T03:19:54.785Z,18.92
2023-03-05T03:24:54.654Z,18.79
2023-03-05T03:29:54.537Z,18.78
2023-03-05T03:34:54.414Z,18.69
2023-03-05T03:39:54.270Z,18.69
2023-03-05T03:44:54.131Z,18.76
2023-03-05T03:49:56.082Z,18.66
2023-03-05T03:54:53.862Z,18.68
2023-03-05T03:59:53.731Z,18.74
2023-03-05T04:04:53.615Z,18.66
2023-03-05T04:09:53.512Z,18.57
2023-03-05T04:14:53.388Z,18.62
2023-03-05T04:19:53.300Z,18.61
2023-03-05T04:24:53.200Z,18.55
2023-03-05T04:29:53.076Z,18.44
2023-03-05T04:34:52.953Z,19.45
2023-03-05T04:39:52.825Z,20.17
2023-03-05T04:44:52.682Z,20.71
2023-03-05T04:49:52.523Z,21.93
2023-03-05T04:54:52.357Z,24.80
2023-03-05T04:59:52.229Z,25.03
2023-03-05T05:04:52.072Z,24.52
2023-03-05T05:09:51.987Z,25.39
2023-03-05T05:14:51.713Z,24.90
2023-03-05T05:19:51.555Z,24.40
2023-03-05T05:24:51.474Z,26.59
2023-03-05T05:29:51.210Z,27.26
2023-03-05T05:34:50.987Z,28.05
2023-03-05T05:39:50.818Z,28.44
2023-03-05T05:44:50.638Z,28.53
2023-03-05T05:49:50.465Z,28.88
2023-03-05T05:54:50.271Z,29.02
2023-03-05T05:59:50.099Z,29.63
2023-03-05T06:04:49.906Z,29.46
2023-03-05T06:09:49.725Z,29.43
2023-03-05T06:14:49.534Z,29.49
2023-03-05T06:19:49.347Z,29.99
2023-03-05T06:24:49.153Z,30.27
2023-03-05T06:29:48.963Z,30.27
2023-03-05T06:34:48.769Z,30.18
2023-03-05T06:39:53.799Z,30.16
2023-03-05T06:44:48.571Z,30.05
2023-03-05T06:49:48.180Z,29.85
2023-03-05T06:54:47.923Z,29.78
2023-03-05T06:59:47.678Z,29.88
2023-03-05T07:04:47.415Z,30.05
2023-03-05T07:09:47.175Z,29.85
2023-03-05T07:14:46.923Z,29.64
2023-03-05T07:19:46.619Z,29.78
2023-03-05T07:24:46.319Z,29.77
2023-03-05T07:29:46.037Z,30.06
2023-03-05T07:34:45.717Z,29.87
2023-03-05T07:39:47.233Z,30.44
2023-03-05T07:44:45.145Z,30.65
2023-03-05T07:49:44.815Z,30.67
2023-03-05T07:54:44.504Z,30.67
2023-03-05T07:59:44.219Z,30.71
2023-03-05T08:04:43.897Z,30.75
2023-03-05T08:09:43.612Z,31.00
2023-03-05T08:14:43.286Z,30.43
2023-03-05T08:19:42.974Z,30.18
2023-03-05T08:24:42.672Z,30.29
2023-03-05T08:29:42.451Z,30.91
2023-03-05T08:34:42.104Z,30.95
2023-03-05T08:39:41.789Z,30.84
2023-03-05T08:44:41.493Z,30.67
2023-03-05T08:49:41.281Z,30.70
2023-03-05T08:54:40.907Z,30.36
2023-03-05T08:59:40.621Z,30.46
2023-03-05T09:04:40.368Z,30.74
2023-03-05T09:09:40.050Z,29.91
2023-03-05T09:14:39.747Z,29.38
2023-03-05T09:19:39.449Z,29.36
2023-03-05T09:24:39.164Z,29.65
2023-03-05T09:29:40.042Z,29.72
2023-03-05T09:34:38.533Z,29.93
2023-03-05T09:39:38.229Z,29.81
2023-03-05T09:44:37.938Z,29.98
2023-03-05T09:49:37.619Z,30.01
2023-03-05T09:54:37.300Z,30.47
2023-03-05T09:59:37.001Z,30.79
2023-03-05T10:04:36.695Z,31.45
2023-03-05T10:09:37.009Z,31.22
2023-03-05T10:14:36.010Z,31.26
2023-03-05T10:19:35.707Z,30.93
2023-03-05T10:24:35.370Z,31.00
2023-03-05T10:29:35.059Z,30.36
2023-03-05T10:34:34.734Z,30.15
2023-03-05T10:39:34.414Z,30.27
2023-03-05T10:44:34.066Z,30.63
2023-03-05T10:49:33.724Z,30.68
2023-03-05T10:54:33.394Z,30.71
2023-03-05T10:59:33.077Z,31.00
2023-03-05T11:04:32.712Z,30.50
2023-03-05T11:09:32.436Z,30.61
2023-03-05T11:14:32.061Z,30.64
2023-03-05T11:19:31.731Z,31.10
2023-03-05T11:24:31.396Z,31.22
2023-03-05T11:29:31.072Z,31.32
2023-03-05T11:34:30.728Z,31.60
2023-03-05T11:39:30.421Z,31.38
2023-03-05T11:44:30.067Z,30.99
2023-03-05T11:49:29.738Z,31.26
2023-03-05T11:54:29.438Z,31.05
2023-03-05T11:59:29.086Z,31.20
2023-03-05T12:04:28.766Z,30.99
2023-03-05T12:09:28.448Z,30.34
2023-03-05T12:14:28.076Z,29.99
2023-03-05T12:19:27.769Z,29.65
2023-03-05T12:24:28.527Z,29.46
2023-03-05T12:29:27.091Z,29.47
2023-03-05T12:34:26.725Z,29.01
2023-03-05T12:39:26.413Z,28.97
2023-03-05T12:44:26.124Z,28.92
2023-03-05T12:49:25.772Z,28.88
2023-03-05T12:54:25.439Z,28.98
2023-03-05T12:59:25.129Z,29.12
2023-03-05T13:04:24.787Z,28.90
2023-03-05T13:09:24.466Z,28.77
2023-03-05T13:14:24.181Z,28.97
2023-03-05T13:19:23.840Z,28.82
2023-03-05T13:24:23.523Z,28.06
2023-03-05T13:29:23.236Z,27.87
2023-03-05T13:34:22.887Z,28.12
2023-03-05T13:39:22.589Z,28.46
2023-03-05T13:44:22.274Z,28.70
2023-03-05T13:49:21.992Z,28.57
2023-03-05T13:54:21.652Z,28.74
2023-03-05T13:59:21.384Z,28.60
2023-03-05T14:04:21.115Z,28.35
2023-03-05T14:09:20.792Z,28.25
2023-03-05T14:14:20.716Z,28.51
2023-03-05T14:19:20.242Z,28.44
2023-03-05T14:24:19.909Z,28.32
2023-03-05T14:29:19.619Z,27.84
2023-03-05T14:34:19.316Z,27.19
2023-03-05T14:39:19.027Z,26.22
2023-03-05T14:44:18.773Z,26.01
2023-03-05T14:49:18.454Z,27.35
2023-03-05T14:54:18.149Z,29.12
2023-03-05T14:59:17.897Z,29.88
2023-03-05T15:04:17.572Z,30.39
2023-03-05T15:09:17.269Z,30.57
2023-03-05T15:14:16.985Z,31.03
2023-03-05T15:19:16.932Z,31.23
2023-03-05T15:24:16.266Z,31.09
2023-03-05T15:29:15.931Z,30.85
2023-03-05T15:34:15.581Z,30.96
2023-03-05T15:39:15.248Z,30.91
2023-03-05T15:44:14.904Z,30.84
2023-03-05T15:49:14.589Z,30.82
2023-03-05T15:54:14.245Z,31.30
2023-03-05T15:59:13.890Z,30.71
2023-03-05T16:04:13.550Z,30.93
2023-03-05T16:09:13.188Z,30.78
2023-03-05T16:14:12.836Z,31.12
2023-03-05T16:19:12.501Z,31.54
2023-03-05T16:24:12.163Z,31.48
2023-03-05T16:29:11.992Z,31.68
2023-03-05T16:34:11.448Z,31.30
2023-03-05T16:39:11.107Z,31.45
2023-03-05T16:44:10.754Z,31.20
2023-03-05T16:49:10.381Z,30.71
2023-03-05T16:54:10.288Z,30.15
2023-03-05T16:59:09.669Z,28.73
2023-03-05T17:04:09.359Z,27.79
2023-03-05T17:09:08.974Z,27.22
2023-03-05T17:14:08.653Z,27.33
2023-03-05T17:19:08.279Z,27.01
2023-03-05T17:24:07.956Z,27.15
2023-03-05T17:29:07.612Z,27.09
2023-03-05T17:34:07.288Z,26.88
2023-03-05T17:39:06.966Z,26.63
2023-03-05T17:44:06.606Z,26.49
2023-03-05T17:49:06.281Z,26.52
2023-03-05T17:54:06.153Z,26.54
2023-03-05T17:59:05.631Z,26.25
2023-03-05T18:04:05.448Z,26.22
2023-03-05T18:09:05.017Z,25.94
2023-03-05T18:14:04.706Z,25.84
2023-03-05T18:19:04.370Z,25.76
2023-03-05T18:24:04.059Z,25.85
2023-03-05T18:29:03.738Z,25.69
2023-03-05T18:34:03.442Z,25.53
2023-03-05T18:39:03.125Z,25.50
2023-03-05T18:44:02.833Z,25.57
2023-03-05T18:49:02.509Z,25.57
2023-03-05T18:54:02.211Z,25.64
2023-03-05T18:59:01.914Z,25.46
2023-03-05T19:04:01.636Z,25.42
2023-03-05T19:09:02.975Z,25.36
2023-03-05T19:14:01.010Z,25.57
2023-03-05T19:19:00.712Z,25.72
2023-03-05T19:24:00.442Z,25.43
2023-03-05T19:29:00.116Z,25.21
2023-03-05T19:33:59.836Z,25.12
2023-03-05T19:38:59.527Z,25.03
2023-03-05T19:43:59.223Z,24.93
2023-03-05T19:48:58.908Z,24.86
2023-03-05T19:53:58.613Z,24.83
2023-03-05T19:58:58.364Z,24.77
2023-03-05T20:03:58.044Z,24.76
2023-03-05T20:08:57.727Z,24.70
2023-03-05T20:13:57.427Z,24.63
2023-03-05T20:18:57.106Z,24.64
2023-03-05T20:23:56.810Z,24.62
2023-03-05T20:28:56.497Z,24.71
2023-03-05T20:33:56.284Z,24.59
2023-03-05T20:38:55.933Z,24.62
2023-03-05T20:43:55.624Z,24.66
2023-03-05T20:48:55.331Z,24.58
2023-03-05T20:53:55.052Z,24.70
2023-03-05T20:58:54.748Z,24.59
2023-03-05T21:03:54.446Z,24.60
2023-03-05T21:08:54.127Z,24.66
2023-03-05T21:13:59.829Z,24.58
2023-03-05T21:18:53.497Z,24.59
2023-03-05T21:23:53.204Z,24.52
2023-03-05T21:28:52.890Z,24.46
2023-03-05T21:33:52.602Z,24.43
2023-03-05T21:38:52.307Z,24.34
2023-03-05T21:43:52.031Z,24.25
2023-03-05T21:48:51.905Z,24.19
2023-03-05T21:53:51.537Z,24.17
2023-03-05T21:58:51.266Z,24.15
2023-03-05T22:03:51.042Z,24.14
2023-03-05T22:08:50.751Z,24.11
2023-03-05T22:13:50.510Z,24.01
2023-03-05T22:18:50.248Z,23.93
2023-03-05T22:23:50.058Z,23.83
2023-03-05T22:28:49.755Z,23.70
2023-03-05T22:33:49.508Z,23.58
2023-03-05T22:38:49.281Z,23.48
2023-03-05T22:43:49.060Z,23.39
2023-03-05T22:48:48.839Z,23.25
2023-03-05T22:53:48.640Z,23.24
2023-03-05T22:58:48.487Z,23.10
2023-03-05T23:03:48.308Z,23.00
2023-03-05T23:08:48.055Z,22.89
2023-03-05T23:13:47.872Z,22.79
2023-03-05T23:18:47.592Z,22.70
2023-03-05T23:23:47.412Z,22.63
2023-03-05T23:28:47.235Z,22.53
2023-03-05T23:33:47.060Z,22.41
2023-03-05T23:38:46.857Z,22.20
2023-03-05T23:43:46.688Z,22.22
2023-03-05T23:48:46.522Z,22.08
2023-03-05T23:53:46.339Z,22.07
2023-03-05T23:58:46.170Z,21.96
